Time,TemperatureF,DewpointF,PressureIn,WindDirection,WindDirectionDegrees,WindSpeedMPH,WindSpeedGustMPH,Humidity,HourlyPrecipIn,Conditions,Clouds,dailyrainin,SolarRadiationWatts/m^2,SoftwareType,DateUTC
2013-06-16 00:02:00,56.4,54.3,29.93,WSW,242,0.0,0.0,93,0.00,,,0.00,0,HR-IXPWINDi_r2_v1.2.,2013-06-16 07:02:00,
2013-06-16 00:07:00,56.7,54.6,29.93,WSW,242,0.0,0.0,93,0.00,,,0.00,0,HR-IXPWINDi_r2_v1.2.,2013-06-16 07:07:00,
2013-06-16 00:13:00,56.9,54.8,29.93,WSW,242,0.0,0.0,93,0.00,,,0.00,0,HR-IXPWINDi_r2_v1.2.,2013-06-16 07:13:00,
2013-06-16 00:18:00,57.0,54.9,29.93,WSW,242,0.0,0.0,93,0.00,,,0.00,0,HR-IXPWINDi_r2_v1.2.,2013-06-16 07:18:00,
2013-06-16 00:23:00,57.0,54.9,29.93,WSW,242,0.0,0.0,93,0.00,,,0.00,0,HR-IXPWINDi_r2_v1.2.,2013-06-16 07:23:00,
2013-06-16 00:28:00,57.0,54.9,29.93,WSW,242,0.0,0.0,93,0.00,,,0.00,0,HR-IXPWINDi_r2_v1.2.,2013-06-16 07:28:00,
2013-06-16 00:34:00,57.1,55.0,29.93,WSW,242,0.0,0.0,93,0.00,,,0.00,0,HR-IXPWINDi_r2_v1.2.,2013-06-16 07:34:00,
2013-06-16 00:39:00,57.0,54.9,29.93,WSW,242,0.0,1.0,93,0.00,,,0.00,0,HR-IXPWINDi_r2_v1.2.,2013-06-16 07:39:00,
2013-06-16 00:44:00,57.0,54.9,29.93,WSW,242,0.0,1.0,93,0.00,,,0.00,0,HR-IXPWINDi_r2_v1.2.,2013-06-16 07:44:00,
2013-06-16 00:49:00,57.1,55.0,29.93,WSW,242,0.0,1.0,93,0.00,,,0.00,0,HR-IXPWINDi_r2_v1.2.,2013-06-16 07:49:00,
2013-06-16 00:54:00,57.2,55.1,29.93,WSW,242,0.0,1.0,93,0.00,,,0.00,0,HR-IXPWINDi_r2_v1.2.,2013-06-16 07:54:00,
2013-06-16 01:00:00,57.2,55.1,29.93,WSW,242,0.0,1.0,93,0.00,,,0.00,0,HR-IXPWINDi_r2_v1.2.,2013-06-16 08:00:00,
2013-06-16 01:05:00,57.5,55.4,29.93,WSW,242,0.0,1.0,93,0.00,,,0.00,0,HR-IXPWINDi_r2_v1.2.,2013-06-16 08:05:00,
2013-06-16 01:10:00,57.7,55.6,29.93,NW,311,0.0,2.0,93,0.00,,,0.00,0,HR-IXPWINDi_r2_v1.2.,2013-06-16 08:10:00,
2013-06-16 01:16:00,57.5,55.1,29.93,NW,311,0.0,2.0,92,0.00,,,0.00,0,HR-IXPWINDi_r2_v1.2.,2013-06-16 08:16:00,
2013-06-16 01:21:00,57.4,55.0,29.93,NW,311,0.0,2.0,92,0.00,,,0.00,0,HR-IXPWINDi_r2_v1.2.,2013-06-16 08:21:00,
2013-06-16 01:26:00,57.4,55.3,29.93,NW,311,0.0,2.0,93,0.00,,,0.00,0,HR-IXPWINDi_r2_v1.2.,2013-06-16 08:26:00,
2013-06-16 01:31:00,57.3,55.2,29.93,NW,315,0.0,3.0,93,0.00,,,0.00,0,HR-IXPWINDi_r2_v1.2.,2013-06-16 08:31:00,
2013-06-16 01:37:00,57.1,55.0,29.93,NW,317,2.0,3.0,93,0.00,,,0.00,0,HR-IXPWINDi_r2_v1.2.,2013-06-16 08:37:00,
2013-06-16 01:42:00,57.0,54.9,29.93,NW,317,0.0,2.0,93,0.00,,,0.00,0,HR-IXPWINDi_r2_v1.2.,2013-06-16 08:42:00,
2013-06-16 01:48:00,57.0,54.9,29.93,NW,317,1.0,3.0,93,0.00,,,0.00,0,HR-IXPWINDi_r2_v1.2.,2013-06-16 08:48:00,
2013-06-16 01:53:00,57.0,54.9,29.93,NW,323,2.0,3.0,93,0.00,,,0.00,0,HR-IXPWINDi_r2_v1.2.,2013-06-16 08:53:00,
2013-06-16 01:58:00,56.7,54.6,29.93,NNW,334,1.0,3.0,93,0.00,,,0.00,0,HR-IXPWINDi_r2_v1.2.,2013-06-16 08:58:00,
2013-06-16 02:04:00,56.6,54.5,29.93,NNW,334,0.0,3.0,93,0.00,,,0.00,0,HR-IXPWINDi_r2_v1.2.,2013-06-16 09:04:00,
2013-06-16 02:09:00,56.5,54.4,29.93,NNW,333,0.0,2.0,93,0.00,,,0.00,0,HR-IXPWINDi_r2_v1.2.,2013-06-16 09:09:00,
2013-06-16 02:15:00,56.4,54.3,29.93,NW,322,2.0,3.0,93,0.00,,,0.00,0,HR-IXPWINDi_r2_v1.2.,2013-06-16 09:15:00,
2013-06-16 02:20:00,56.5,54.4,29.93,NNW,329,1.0,3.0,93,0.00,,,0.00,0,HR-IXPWINDi_r2_v1.2.,2013-06-16 09:20:00,
2013-06-16 02:25:00,56.3,54.2,29.93,NNW,329,0.0,3.0,93,0.00,,,0.00,0,HR-IXPWINDi_r2_v1.2.,2013-06-16 09:25:00,
2013-06-16 02:30:00,56.2,54.1,29.93,North,10,0.0,3.0,93,0.00,,,0.00,0,HR-IXPWINDi_r2_v1.2.,2013-06-16 09:30:00,
2013-06-16 02:35:00,56.3,54.5,29.93,North,10,0.0,3.0,94,0.00,,,0.00,0,HR-IXPWINDi_r2_v1.2.,2013-06-16 09:35:00,
2013-06-16 02:40:00,56.3,54.5,29.93,North,360,0.0,3.0,94,0.00,,,0.00,0,HR-IXPWINDi_r2_v1.2.,2013-06-16 09:40:00,
2013-06-16 02:45:00,56.2,54.1,29.92,North,355,0.0,2.0,93,0.00,,,0.00,0,HR-IXPWINDi_r2_v1.2.,2013-06-16 09:45:00,
2013-06-16 02:51:00,56.0,54.2,29.92,NNW,335,0.0,3.0,94,0.00,,,0.00,0,HR-IXPWINDi_r2_v1.2.,2013-06-16 09:51:00,
2013-06-16 02:56:00,56.0,54.2,29.93,NNW,333,2.0,3.0,94,0.00,,,0.00,0,HR-IXPWINDi_r2_v1.2.,2013-06-16 09:56:00,
2013-06-16 03:01:00,56.0,54.2,29.93,NNW,329,0.0,3.0,94,0.00,,,0.00,0,HR-IXPWINDi_r2_v1.2.,2013-06-16 10:01:00,
2013-06-16 03:06:00,55.9,53.8,29.93,NW,305,2.0,3.0,93,0.00,,,0.00,0,HR-IXPWINDi_r2_v1.2.,2013-06-16 10:06:00,
2013-06-16 03:12:00,55.8,54.0,29.93,WNW,300,3.0,5.0,94,0.00,,,0.00,0,HR-IXPWINDi_r2_v1.2.,2013-06-16 10:12:00,
2013-06-16 03:17:00,55.6,53.8,29.93,NW,322,2.0,5.0,94,0.00,,,0.00,0,HR-IXPWINDi_r2_v1.2.,2013-06-16 10:17:00,
2013-06-16 03:22:00,55.7,53.9,29.93,NW,322,0.0,4.0,94,0.00,,,0.00,0,HR-IXPWINDi_r2_v1.2.,2013-06-16 10:22:00,
2013-06-16 03:27:00,55.5,53.7,29.93,NW,322,3.0,3.0,94,0.00,,,0.00,0,HR-IXPWINDi_r2_v1.2.,2013-06-16 10:27:00,
2013-06-16 03:32:00,55.3,53.5,29.93,NW,315,2.0,3.0,94,0.00,,,0.00,0,HR-IXPWINDi_r2_v1.2.,2013-06-16 10:32:00,
2013-06-16 03:37:00,55.3,53.5,29.93,NW,305,0.0,4.0,94,0.00,,,0.00,0,HR-IXPWINDi_r2_v1.2.,2013-06-16 10:37:00,
2013-06-16 03:42:00,55.4,53.6,29.93,NW,313,0.0,4.0,94,0.00,,,0.00,0,HR-IXPWINDi_r2_v1.2.,2013-06-16 10:42:00,
2013-06-16 03:48:00,55.5,53.7,29.93,NW,311,0.0,3.0,94,0.00,,,0.00,0,HR-IXPWINDi_r2_v1.2.,2013-06-16 10:48:00,
2013-06-16 03:53:00,55.6,54.1,29.93,NW,311,1.0,2.0,95,0.00,,,0.00,0,HR-IXPWINDi_r2_v1.2.,2013-06-16 10:53:00,
2013-06-16 03:58:00,55.7,53.9,29.94,NW,311,0.0,2.0,94,0.00,,,0.00,0,HR-IXPWINDi_r2_v1.2.,2013-06-16 10:58:00,
2013-06-16 04:04:00,55.8,54.0,29.94,NW,315,0.0,3.0,94,0.00,,,0.00,0,HR-IXPWINDi_r2_v1.2.,2013-06-16 11:04:00,
2013-06-16 04:09:00,55.7,53.9,29.94,NNE,22,0.0,3.0,94,0.00,,,0.00,0,HR-IXPWINDi_r2_v1.2.,2013-06-16 11:09:00,
2013-06-16 04:14:00,55.5,53.7,29.94,NW,317,1.0,3.0,94,0.00,,,0.00,0,HR-IXPWINDi_r2_v1.2.,2013-06-16 11:14:00,
2013-06-16 04:19:00,55.4,53.6,29.94,WNW,299,3.0,3.0,94,0.00,,,0.00,0,HR-IXPWINDi_r2_v1.2.,2013-06-16 11:19:00,
2013-06-16 04:24:00,55.4,53.6,29.94,WNW,296,2.0,4.0,94,0.00,,,0.00,0,HR-IXPWINDi_r2_v1.2.,2013-06-16 11:24:00,
2013-06-16 04:29:00,55.4,53.6,29.94,WNW,296,1.0,4.0,94,0.00,,,0.00,0,HR-IXPWINDi_r2_v1.2.,2013-06-16 11:29:00,
2013-06-16 04:34:00,55.4,53.6,29.94,NW,317,3.0,4.0,94,0.00,,,0.00,0,HR-IXPWINDi_r2_v1.2.,2013-06-16 11:34:00,
2013-06-16 04:39:00,55.1,53.3,29.94,NW,315,1.0,4.0,94,0.00,,,0.00,0,HR-IXPWINDi_r2_v1.2.,2013-06-16 11:39:00,
2013-06-16 04:45:00,55.1,53.6,29.94,NW,315,1.0,3.0,95,0.00,,,0.00,0,HR-IXPWINDi_r2_v1.2.,2013-06-16 11:45:00,
2013-06-16 04:50:00,55.0,53.5,29.94,NW,315,0.0,3.0,95,0.00,,,0.00,0,HR-IXPWINDi_r2_v1.2.,2013-06-16 11:50:00,
2013-06-16 04:55:00,55.0,53.5,29.94,NW,315,0.0,3.0,95,0.00,,,0.00,0,HR-IXPWINDi_r2_v1.2.,2013-06-16 11:55:00,
2013-06-16 05:00:00,55.1,53.6,29.94,NW,315,1.0,3.0,95,0.00,,,0.00,0,HR-IXPWINDi_r2_v1.2.,2013-06-16 12:00:00,
2013-06-16 05:05:00,55.1,53.6,29.94,NW,315,2.0,3.0,95,0.00,,,0.00,0,HR-IXPWINDi_r2_v1.2.,2013-06-16 12:05:00,
2013-06-16 05:10:00,55.2,53.7,29.95,NW,319,0.0,3.0,95,0.00,,,0.00,0,HR-IXPWINDi_r2_v1.2.,2013-06-16 12:10:00,
2013-06-16 05:16:00,55.3,53.8,29.95,NW,319,2.0,3.0,95,0.00,,,0.00,0,HR-IXPWINDi_r2_v1.2.,2013-06-16 12:16:00,
2013-06-16 05:21:00,55.3,53.8,29.95,WNW,286,1.0,4.0,95,0.00,,,0.00,0,HR-IXPWINDi_r2_v1.2.,2013-06-16 12:21:00,
2013-06-16 05:26:00,55.2,53.7,29.95,NW,321,3.0,5.0,95,0.00,,,0.00,0,HR-IXPWINDi_r2_v1.2.,2013-06-16 12:26:00,
2013-06-16 05:32:00,55.2,53.7,29.95,NW,305,0.0,5.0,95,0.00,,,0.00,0,HR-IXPWINDi_r2_v1.2.,2013-06-16 12:32:00,
2013-06-16 05:37:00,55.2,53.7,29.95,NW,311,0.0,4.0,95,0.00,,,0.00,0,HR-IXPWINDi_r2_v1.2.,2013-06-16 12:37:00,
2013-06-16 05:42:00,55.2,53.7,29.95,WNW,302,3.0,3.0,95,0.00,,,0.00,0,HR-IXPWINDi_r2_v1.2.,2013-06-16 12:42:00,
2013-06-16 05:48:00,55.1,53.6,29.95,NW,307,2.0,4.0,95,0.00,,,0.00,0,HR-IXPWINDi_r2_v1.2.,2013-06-16 12:48:00,
2013-06-16 05:53:00,55.0,53.5,29.96,WNW,298,2.0,5.0,95,0.00,,,0.00,0,HR-IXPWINDi_r2_v1.2.,2013-06-16 12:53:00,
2013-06-16 05:58:00,54.9,53.4,29.96,NW,304,1.0,5.0,95,0.00,,,0.00,0,HR-IXPWINDi_r2_v1.2.,2013-06-16 12:58:00,
2013-06-16 06:03:00,55.0,53.5,29.96,NW,309,2.0,4.0,95,0.00,,,0.00,5,HR-IXPWINDi_r2_v1.2.,2013-06-16 13:03:00,
2013-06-16 06:08:00,55.1,53.6,29.96,NW,311,0.0,5.0,95,0.00,,,0.00,7,HR-IXPWINDi_r2_v1.2.,2013-06-16 13:08:00,
2013-06-16 06:13:00,55.1,53.6,29.96,NW,314,2.0,5.0,95,0.00,,,0.00,9,HR-IXPWINDi_r2_v1.2.,2013-06-16 13:13:00,
2013-06-16 06:19:00,55.2,53.7,29.96,NW,317,2.0,4.0,95,0.00,,,0.00,11,HR-IXPWINDi_r2_v1.2.,2013-06-16 13:19:00,
2013-06-16 06:24:00,55.3,53.8,29.96,NW,317,1.0,4.0,95,0.00,,,0.00,12,HR-IXPWINDi_r2_v1.2.,2013-06-16 13:24:00,
2013-06-16 06:29:00,55.4,54.2,29.97,NW,308,4.0,4.0,96,0.00,,,0.00,14,HR-IXPWINDi_r2_v1.2.,2013-06-16 13:29:00,
2013-06-16 06:34:00,55.4,53.9,29.97,NW,325,1.0,4.0,95,0.00,,,0.00,16,HR-IXPWINDi_r2_v1.2.,2013-06-16 13:34:00,
2013-06-16 06:40:00,55.4,54.2,29.97,NW,319,1.0,4.0,96,0.00,,,0.00,18,HR-IXPWINDi_r2_v1.2.,2013-06-16 13:40:00,
2013-06-16 06:45:00,55.5,54.3,29.97,NW,315,4.0,5.0,96,0.00,,,0.00,21,HR-IXPWINDi_r2_v1.2.,2013-06-16 13:45:00,
2013-06-16 06:50:00,55.5,54.3,29.97,NW,317,1.0,5.0,96,0.00,,,0.00,25,HR-IXPWINDi_r2_v1.2.,2013-06-16 13:50:00,
2013-06-16 06:55:00,55.6,54.1,29.97,NW,308,0.0,5.0,95,0.00,,,0.00,26,HR-IXPWINDi_r2_v1.2.,2013-06-16 13:55:00,
2013-06-16 07:00:00,55.6,54.1,29.98,NW,304,1.0,3.0,95,0.00,,,0.00,26,HR-IXPWINDi_r2_v1.2.,2013-06-16 14:00:00,
2013-06-16 07:05:00,55.8,54.6,29.98,NW,304,3.0,3.0,96,0.00,,,0.00,28,HR-IXPWINDi_r2_v1.2.,2013-06-16 14:05:00,
2013-06-16 07:10:00,55.9,54.7,29.98,NW,311,0.0,3.0,96,0.00,,,0.00,30,HR-IXPWINDi_r2_v1.2.,2013-06-16 14:10:00,
2013-06-16 07:16:00,56.0,54.8,29.98,NW,308,0.0,3.0,96,0.00,,,0.00,32,HR-IXPWINDi_r2_v1.2.,2013-06-16 14:16:00,
2013-06-16 07:21:00,56.2,55.0,29.99,NW,308,0.0,3.0,96,0.00,,,0.00,32,HR-IXPWINDi_r2_v1.2.,2013-06-16 14:21:00,
2013-06-16 07:26:00,56.3,55.1,29.99,NW,308,0.0,2.0,96,0.00,,,0.00,35,HR-IXPWINDi_r2_v1.2.,2013-06-16 14:26:00,
2013-06-16 07:31:00,56.5,55.3,29.99,NW,308,2.0,2.0,96,0.00,,,0.00,42,HR-IXPWINDi_r2_v1.2.,2013-06-16 14:31:00,
2013-06-16 07:36:00,56.5,55.0,29.99,NW,308,0.0,2.0,95,0.00,,,0.00,42,HR-IXPWINDi_r2_v1.2.,2013-06-16 14:36:00,
2013-06-16 07:42:00,56.6,55.4,29.99,NW,309,0.0,2.0,96,0.00,,,0.00,49,HR-IXPWINDi_r2_v1.2.,2013-06-16 14:42:00,
2013-06-16 07:47:00,56.6,55.4,29.99,NW,309,1.0,2.0,96,0.00,,,0.00,51,HR-IXPWINDi_r2_v1.2.,2013-06-16 14:47:00,
2013-06-16 07:52:00,56.8,55.6,29.99,NW,309,1.0,3.0,96,0.00,,,0.00,47,HR-IXPWINDi_r2_v1.2.,2013-06-16 14:52:00,
2013-06-16 07:57:00,57.1,55.9,29.99,NW,309,0.0,3.0,96,0.00,,,0.00,53,HR-IXPWINDi_r2_v1.2.,2013-06-16 14:57:00,
2013-06-16 08:03:00,57.1,55.9,29.99,NW,309,0.0,2.0,96,0.00,,,0.00,53,HR-IXPWINDi_r2_v1.2.,2013-06-16 15:03:00,
2013-06-16 08:08:00,57.3,56.1,30.00,NW,310,0.0,3.0,96,0.00,,,0.00,63,HR-IXPWINDi_r2_v1.2.,2013-06-16 15:08:00,
2013-06-16 08:13:00,57.2,56.0,30.00,NNW,340,1.0,3.0,96,0.00,,,0.00,67,HR-IXPWINDi_r2_v1.2.,2013-06-16 15:13:00,
2013-06-16 08:18:00,57.5,56.3,30.00,NNW,340,0.0,3.0,96,0.00,,,0.00,74,HR-IXPWINDi_r2_v1.2.,2013-06-16 15:18:00,
2013-06-16 08:23:00,57.8,56.6,30.00,NNW,340,1.0,2.0,96,0.00,,,0.00,72,HR-IXPWINDi_r2_v1.2.,2013-06-16 15:23:00,
2013-06-16 08:28:00,58.0,56.5,30.01,NNW,340,0.0,2.0,95,0.00,,,0.00,76,HR-IXPWINDi_r2_v1.2.,2013-06-16 15:28:00,
2013-06-16 08:34:00,58.0,56.5,30.01,NNW,339,0.0,2.0,95,0.00,,,0.00,77,HR-IXPWINDi_r2_v1.2.,2013-06-16 15:34:00,
2013-06-16 08:39:00,58.1,56.6,30.01,NNW,333,2.0,3.0,95,0.00,,,0.00,26,HR-IXPWINDi_r2_v1.2.,2013-06-16 15:39:00,
2013-06-16 08:44:00,58.1,56.3,30.01,NNW,334,2.0,3.0,94,0.00,,,0.00,97,HR-IXPWINDi_r2_v1.2.,2013-06-16 15:44:00,
2013-06-16 08:49:00,58.4,56.6,30.01,NNE,32,0.0,2.0,94,0.00,,,0.00,107,HR-IXPWINDi_r2_v1.2.,2013-06-16 15:49:00,
2013-06-16 08:54:00,58.8,57.0,30.01,NE,47,0.0,3.0,94,0.00,,,0.00,111,HR-IXPWINDi_r2_v1.2.,2013-06-16 15:54:00,
2013-06-16 09:00:00,59.2,57.1,30.01,North,351,0.0,3.0,93,0.00,,,0.00,113,HR-IXPWINDi_r2_v1.2.,2013-06-16 16:00:00,
2013-06-16 09:05:00,59.4,57.0,30.01,North,351,0.0,3.0,92,0.00,,,0.00,123,HR-IXPWINDi_r2_v1.2.,2013-06-16 16:05:00,
2013-06-16 09:10:00,59.7,57.3,30.01,ENE,61,0.0,2.0,92,0.00,,,0.00,118,HR-IXPWINDi_r2_v1.2.,2013-06-16 16:10:00,
2013-06-16 09:15:00,59.9,57.2,30.01,ENE,61,0.0,2.0,91,0.00,,,0.00,134,HR-IXPWINDi_r2_v1.2.,2013-06-16 16:15:00,
2013-06-16 09:20:00,60.3,57.3,30.01,ENE,61,0.0,2.0,90,0.00,,,0.00,139,HR-IXPWINDi_r2_v1.2.,2013-06-16 16:20:00,
2013-06-16 09:25:00,60.3,57.3,30.01,SSE,165,2.0,3.0,90,0.00,,,0.00,148,HR-IXPWINDi_r2_v1.2.,2013-06-16 16:25:00,
2013-06-16 09:31:00,60.7,57.4,30.01,South,172,0.0,3.0,89,0.00,,,0.00,167,HR-IXPWINDi_r2_v1.2.,2013-06-16 16:31:00,
2013-06-16 09:36:00,61.4,58.1,30.01,South,172,0.0,3.0,89,0.00,,,0.00,199,HR-IXPWINDi_r2_v1.2.,2013-06-16 16:36:00,
2013-06-16 09:41:00,61.7,57.7,30.01,South,172,0.0,3.0,87,0.00,,,0.00,250,HR-IXPWINDi_r2_v1.2.,2013-06-16 16:41:00,
2013-06-16 09:46:00,62.1,57.8,30.01,South,172,1.0,2.0,86,0.00,,,0.00,281,HR-IXPWINDi_r2_v1.2.,2013-06-16 16:46:00,
2013-06-16 09:51:00,62.2,57.6,30.01,SE,138,1.0,3.0,85,0.00,,,0.00,339,HR-IXPWINDi_r2_v1.2.,2013-06-16 16:51:00,
2013-06-16 09:56:00,62.7,57.7,30.00,SSE,168,1.0,3.0,84,0.00,,,0.00,369,HR-IXPWINDi_r2_v1.2.,2013-06-16 16:56:00,
2013-06-16 10:01:00,63.2,57.9,30.00,SSE,167,0.0,3.0,83,0.00,,,0.00,439,HR-IXPWINDi_r2_v1.2.,2013-06-16 17:01:00,
2013-06-16 10:07:00,64.9,59.9,30.00,SSE,166,2.0,4.0,84,0.00,,,0.00,805,HR-IXPWINDi_r2_v1.2.,2013-06-16 17:07:00,
2013-06-16 10:12:00,66.1,59.0,30.00,South,184,4.0,5.0,78,0.00,,,0.00,963,HR-IXPWINDi_r2_v1.2.,2013-06-16 17:12:00,
2013-06-16 10:18:00,64.7,57.3,30.00,SSE,167,4.0,5.0,77,0.00,,,0.00,236,HR-IXPWINDi_r2_v1.2.,2013-06-16 17:18:00,
2013-06-16 10:23:00,64.2,58.5,30.00,SSE,167,1.0,7.0,82,0.00,,,0.00,765,HR-IXPWINDi_r2_v1.2.,2013-06-16 17:23:00,
2013-06-16 10:28:00,66.7,58.8,30.00,South,178,4.0,7.0,76,0.00,,,0.00,759,HR-IXPWINDi_r2_v1.2.,2013-06-16 17:28:00,
2013-06-16 10:33:00,67.0,59.1,30.00,SSE,150,1.0,7.0,76,0.00,,,0.00,758,HR-IXPWINDi_r2_v1.2.,2013-06-16 17:33:00,
2013-06-16 10:38:00,69.7,60.6,30.00,SSE,153,1.0,6.0,73,0.00,,,0.00,772,HR-IXPWINDi_r2_v1.2.,2013-06-16 17:38:00,
2013-06-16 10:43:00,68.5,60.6,29.99,SSE,155,0.0,5.0,76,0.00,,,0.00,786,HR-IXPWINDi_r2_v1.2.,2013-06-16 17:43:00,
2013-06-16 10:48:00,69.2,58.9,30.00,SSE,161,4.0,9.0,70,0.00,,,0.00,789,HR-IXPWINDi_r2_v1.2.,2013-06-16 17:48:00,
2013-06-16 10:54:00,70.4,60.9,29.99,South,171,5.0,9.0,72,0.00,,,0.00,802,HR-IXPWINDi_r2_v1.2.,2013-06-16 17:54:00,
2013-06-16 10:59:00,70.4,59.3,29.99,SSW,193,3.0,6.0,68,0.00,,,0.00,810,HR-IXPWINDi_r2_v1.2.,2013-06-16 17:59:00,
2013-06-16 11:04:00,72.9,60.8,29.98,ENE,61,0.0,4.0,66,0.00,,,0.00,821,HR-IXPWINDi_r2_v1.2.,2013-06-16 18:04:00,
2013-06-16 11:09:00,73.1,60.1,29.98,South,191,2.0,6.0,64,0.00,,,0.00,828,HR-IXPWINDi_r2_v1.2.,2013-06-16 18:09:00,
2013-06-16 11:14:00,72.1,60.9,29.98,SSW,201,0.0,6.0,68,0.00,,,0.00,838,HR-IXPWINDi_r2_v1.2.,2013-06-16 18:14:00,
2013-06-16 11:20:00,73.2,61.5,29.98,South,182,5.0,5.0,67,0.00,,,0.00,842,HR-IXPWINDi_r2_v1.2.,2013-06-16 18:20:00,
2013-06-16 11:25:00,75.1,62.0,29.98,South,187,4.0,6.0,64,0.00,,,0.00,851,HR-IXPWINDi_r2_v1.2.,2013-06-16 18:25:00,
2013-06-16 11:30:00,76.2,62.2,29.98,SSE,164,2.0,6.0,62,0.00,,,0.00,858,HR-IXPWINDi_r2_v1.2.,2013-06-16 18:30:00,
2013-06-16 11:35:00,76.5,61.1,29.98,SE,132,1.0,8.0,59,0.00,,,0.00,863,HR-IXPWINDi_r2_v1.2.,2013-06-16 18:35:00,
2013-06-16 11:41:00,75.3,61.3,29.98,East,98,2.0,8.0,62,0.00,,,0.00,868,HR-IXPWINDi_r2_v1.2.,2013-06-16 18:41:00,
2013-06-16 11:46:00,75.9,61.9,29.98,SSE,161,7.0,8.0,62,0.00,,,0.00,875,HR-IXPWINDi_r2_v1.2.,2013-06-16 18:46:00,
2013-06-16 11:52:00,75.7,62.6,29.98,SE,144,2.0,7.0,64,0.00,,,0.00,881,HR-IXPWINDi_r2_v1.2.,2013-06-16 18:52:00,
2013-06-16 11:57:00,77.7,61.7,29.98,South,185,3.0,9.0,58,0.00,,,0.00,882,HR-IXPWINDi_r2_v1.2.,2013-06-16 18:57:00,
2013-06-16 12:02:00,78.9,62.8,29.97,South,175,6.0,9.0,58,0.00,,,0.00,889,HR-IXPWINDi_r2_v1.2.,2013-06-16 19:02:00,
2013-06-16 12:07:00,77.3,62.3,29.97,South,175,1.0,7.0,60,0.00,,,0.00,889,HR-IXPWINDi_r2_v1.2.,2013-06-16 19:07:00,
2013-06-16 12:13:00,78.3,61.3,29.96,South,174,0.0,8.0,56,0.00,,,0.00,900,HR-IXPWINDi_r2_v1.2.,2013-06-16 19:13:00,
2013-06-16 12:18:00,79.2,61.1,29.96,South,188,1.0,8.0,54,0.00,,,0.00,904,HR-IXPWINDi_r2_v1.2.,2013-06-16 19:18:00,
2013-06-16 12:23:00,79.6,62.5,29.96,South,172,3.0,6.0,56,0.00,,,0.00,902,HR-IXPWINDi_r2_v1.2.,2013-06-16 19:23:00,
2013-06-16 12:28:00,79.1,61.5,29.96,SSE,152,2.0,8.0,55,0.00,,,0.00,905,HR-IXPWINDi_r2_v1.2.,2013-06-16 19:28:00,
2013-06-16 12:33:00,78.8,61.2,29.96,West,261,3.0,8.0,55,0.00,,,0.00,905,HR-IXPWINDi_r2_v1.2.,2013-06-16 19:33:00,
2013-06-16 12:39:00,79.7,61.5,29.96,South,169,8.0,10.0,54,0.00,,,0.00,909,HR-IXPWINDi_r2_v1.2.,2013-06-16 19:39:00,
2013-06-16 12:44:00,77.5,60.0,29.96,South,175,3.0,10.0,55,0.00,,,0.00,909,HR-IXPWINDi_r2_v1.2.,2013-06-16 19:44:00,
2013-06-16 12:49:00,76.4,60.0,29.96,SSE,150,2.0,10.0,57,0.00,,,0.00,907,HR-IXPWINDi_r2_v1.2.,2013-06-16 19:49:00,
2013-06-16 12:54:00,77.8,60.8,29.96,South,189,5.0,9.0,56,0.00,,,0.00,905,HR-IXPWINDi_r2_v1.2.,2013-06-16 19:54:00,
2013-06-16 12:59:00,79.4,61.8,29.95,South,175,0.0,10.0,55,0.00,,,0.00,912,HR-IXPWINDi_r2_v1.2.,2013-06-16 19:59:00,
2013-06-16 13:04:00,80.6,62.9,29.95,South,177,6.0,10.0,55,0.00,,,0.00,911,HR-IXPWINDi_r2_v1.2.,2013-06-16 20:04:00,
2013-06-16 13:10:00,80.6,61.8,29.95,SSW,203,5.0,10.0,53,0.00,,,0.00,907,HR-IXPWINDi_r2_v1.2.,2013-06-16 20:10:00,
2013-06-16 13:15:00,80.7,62.5,29.95,South,182,4.0,10.0,54,0.00,,,0.00,907,HR-IXPWINDi_r2_v1.2.,2013-06-16 20:15:00,
2013-06-16 13:20:00,80.0,61.3,29.95,SSW,208,0.0,11.0,53,0.00,,,0.00,904,HR-IXPWINDi_r2_v1.2.,2013-06-16 20:20:00,
2013-06-16 13:25:00,79.8,63.2,29.95,South,186,4.0,11.0,57,0.00,,,0.00,904,HR-IXPWINDi_r2_v1.2.,2013-06-16 20:25:00,
2013-06-16 13:31:00,79.9,61.7,29.95,ESE,108,3.0,8.0,54,0.00,,,0.00,902,HR-IXPWINDi_r2_v1.2.,2013-06-16 20:31:00,
2013-06-16 13:36:00,80.2,60.9,29.95,SSE,167,2.0,10.0,52,0.00,,,0.00,898,HR-IXPWINDi_r2_v1.2.,2013-06-16 20:36:00,
2013-06-16 13:41:00,80.3,61.6,29.95,ENE,77,1.0,10.0,53,0.00,,,0.00,895,HR-IXPWINDi_r2_v1.2.,2013-06-16 20:41:00,
2013-06-16 13:46:00,79.3,60.1,29.95,SSE,156,5.0,10.0,52,0.00,,,0.00,889,HR-IXPWINDi_r2_v1.2.,2013-06-16 20:46:00,
2013-06-16 13:51:00,77.6,60.1,29.94,South,176,4.0,12.0,55,0.00,,,0.00,886,HR-IXPWINDi_r2_v1.2.,2013-06-16 20:51:00,
2013-06-16 13:56:00,78.4,60.8,29.94,South,171,7.0,12.0,55,0.00,,,0.00,877,HR-IXPWINDi_r2_v1.2.,2013-06-16 20:56:00,
2013-06-16 14:02:00,79.7,62.6,29.94,SSE,167,2.0,9.0,56,0.00,,,0.00,874,HR-IXPWINDi_r2_v1.2.,2013-06-16 21:02:00,
2013-06-16 14:07:00,78.0,60.0,29.94,SE,146,5.0,11.0,54,0.00,,,0.00,863,HR-IXPWINDi_r2_v1.2.,2013-06-16 21:07:00,
2013-06-16 14:12:00,77.7,60.7,29.94,South,188,6.0,11.0,56,0.00,,,0.00,854,HR-IXPWINDi_r2_v1.2.,2013-06-16 21:12:00,
2013-06-16 14:17:00,77.7,61.2,29.94,SSW,194,8.0,10.0,57,0.00,,,0.00,849,HR-IXPWINDi_r2_v1.2.,2013-06-16 21:17:00,
2013-06-16 14:23:00,77.1,61.6,29.94,SSE,159,4.0,11.0,59,0.00,,,0.00,846,HR-IXPWINDi_r2_v1.2.,2013-06-16 21:23:00,
2013-06-16 14:28:00,77.2,60.2,29.94,SSE,155,5.0,13.0,56,0.00,,,0.00,840,HR-IXPWINDi_r2_v1.2.,2013-06-16 21:28:00,
2013-06-16 14:33:00,76.0,59.6,29.94,South,186,11.0,13.0,57,0.00,,,0.00,830,HR-IXPWINDi_r2_v1.2.,2013-06-16 21:33:00,
2013-06-16 14:38:00,76.1,61.2,29.94,SW,216,6.0,13.0,60,0.00,,,0.00,821,HR-IXPWINDi_r2_v1.2.,2013-06-16 21:38:00,
2013-06-16 14:43:00,75.4,60.0,29.94,South,182,7.0,13.0,59,0.00,,,0.00,812,HR-IXPWINDi_r2_v1.2.,2013-06-16 21:43:00,
2013-06-16 14:48:00,75.5,60.1,29.94,SE,142,7.0,13.0,59,0.00,,,0.00,803,HR-IXPWINDi_r2_v1.2.,2013-06-16 21:48:00,
2013-06-16 14:53:00,75.8,59.9,29.94,SE,145,2.0,11.0,58,0.00,,,0.00,796,HR-IXPWINDi_r2_v1.2.,2013-06-16 21:53:00,
2013-06-16 14:58:00,75.1,59.7,29.94,SSE,148,4.0,13.0,59,0.00,,,0.00,786,HR-IXPWINDi_r2_v1.2.,2013-06-16 21:58:00,
2013-06-16 15:04:00,75.7,61.2,29.94,South,169,2.0,13.0,61,0.00,,,0.00,775,HR-IXPWINDi_r2_v1.2.,2013-06-16 22:04:00,
2013-06-16 15:09:00,76.0,60.1,29.94,SSE,161,3.0,12.0,58,0.00,,,0.00,763,HR-IXPWINDi_r2_v1.2.,2013-06-16 22:09:00,
2013-06-16 15:14:00,76.0,60.6,29.94,SSW,207,9.0,12.0,59,0.00,,,0.00,754,HR-IXPWINDi_r2_v1.2.,2013-06-16 22:14:00,
2013-06-16 15:19:00,75.2,59.4,29.94,South,178,4.0,12.0,58,0.00,,,0.00,744,HR-IXPWINDi_r2_v1.2.,2013-06-16 22:19:00,
2013-06-16 15:24:00,74.3,59.9,29.94,ENE,61,0.0,12.0,61,0.00,,,0.00,731,HR-IXPWINDi_r2_v1.2.,2013-06-16 22:24:00,
2013-06-16 15:30:00,76.8,61.3,29.93,South,170,7.0,9.0,59,0.00,,,0.00,650,HR-IXPWINDi_r2_v1.2.,2013-06-16 22:30:00,
2013-06-16 15:35:00,75.4,60.0,29.93,SSE,165,6.0,9.0,59,0.00,,,0.00,714,HR-IXPWINDi_r2_v1.2.,2013-06-16 22:35:00,
2013-06-16 15:40:00,76.6,61.6,29.93,South,181,8.0,9.0,60,0.00,,,0.00,700,HR-IXPWINDi_r2_v1.2.,2013-06-16 22:40:00,
2013-06-16 15:45:00,75.2,59.8,29.93,South,182,7.0,10.0,59,0.00,,,0.00,693,HR-IXPWINDi_r2_v1.2.,2013-06-16 22:45:00,
2013-06-16 15:50:00,75.4,61.9,29.93,South,170,4.0,10.0,63,0.00,,,0.00,679,HR-IXPWINDi_r2_v1.2.,2013-06-16 22:50:00,
2013-06-16 15:55:00,75.1,59.7,29.93,South,176,8.0,11.0,59,0.00,,,0.00,663,HR-IXPWINDi_r2_v1.2.,2013-06-16 22:55:00,
2013-06-16 16:00:00,75.0,59.6,29.93,SSW,192,6.0,11.0,59,0.00,,,0.00,654,HR-IXPWINDi_r2_v1.2.,2013-06-16 23:00:00,
2013-06-16 16:05:00,75.2,60.3,29.93,SSW,192,2.0,10.0,60,0.00,,,0.00,638,HR-IXPWINDi_r2_v1.2.,2013-06-16 23:05:00,
2013-06-16 16:11:00,75.1,60.2,29.93,South,184,5.0,9.0,60,0.00,,,0.00,624,HR-IXPWINDi_r2_v1.2.,2013-06-16 23:11:00,
2013-06-16 16:16:00,75.2,60.3,29.92,South,173,5.0,8.0,60,0.00,,,0.00,610,HR-IXPWINDi_r2_v1.2.,2013-06-16 23:16:00,
2013-06-16 16:21:00,74.6,59.7,29.92,SSW,211,4.0,10.0,60,0.00,,,0.00,598,HR-IXPWINDi_r2_v1.2.,2013-06-16 23:21:00,
2013-06-16 16:26:00,74.0,59.6,29.93,South,187,1.0,10.0,61,0.00,,,0.00,582,HR-IXPWINDi_r2_v1.2.,2013-06-16 23:26:00,
2013-06-16 16:31:00,74.7,60.3,29.93,SSW,192,6.0,11.0,61,0.00,,,0.00,568,HR-IXPWINDi_r2_v1.2.,2013-06-16 23:31:00,
2013-06-16 16:36:00,73.2,59.3,29.92,South,188,5.0,11.0,62,0.00,,,0.00,552,HR-IXPWINDi_r2_v1.2.,2013-06-16 23:36:00,
2013-06-16 16:42:00,73.8,60.4,29.93,SE,143,3.0,9.0,63,0.00,,,0.00,536,HR-IXPWINDi_r2_v1.2.,2013-06-16 23:42:00,
2013-06-16 16:47:00,73.7,59.4,29.92,SSW,194,7.0,9.0,61,0.00,,,0.00,524,HR-IXPWINDi_r2_v1.2.,2013-06-16 23:47:00,
2013-06-16 16:52:00,73.2,59.8,29.92,SE,136,5.0,9.0,63,0.00,,,0.00,508,HR-IXPWINDi_r2_v1.2.,2013-06-16 23:52:00,
2013-06-16 16:57:00,73.3,59.4,29.92,South,177,3.0,8.0,62,0.00,,,0.00,490,HR-IXPWINDi_r2_v1.2.,2013-06-16 23:57:00,
2013-06-16 17:02:00,72.4,59.0,29.92,South,190,3.0,11.0,63,0.00,,,0.00,476,HR-IXPWINDi_r2_v1.2.,2013-06-17 00:02:00,
2013-06-16 17:07:00,71.9,59.4,29.92,SSE,155,7.0,11.0,65,0.00,,,0.00,461,HR-IXPWINDi_r2_v1.2.,2013-06-17 00:07:00,
2013-06-16 17:12:00,71.7,59.7,29.92,SSW,196,6.0,9.0,66,0.00,,,0.00,445,HR-IXPWINDi_r2_v1.2.,2013-06-17 00:12:00,
2013-06-16 17:18:00,71.7,59.7,29.92,South,176,6.0,9.0,66,0.00,,,0.00,432,HR-IXPWINDi_r2_v1.2.,2013-06-17 00:18:00,
2013-06-16 17:23:00,71.5,59.5,29.92,South,174,3.0,8.0,66,0.00,,,0.00,417,HR-IXPWINDi_r2_v1.2.,2013-06-17 00:23:00,
2013-06-16 17:28:00,71.8,59.8,29.92,SSW,209,5.0,8.0,66,0.00,,,0.00,301,HR-IXPWINDi_r2_v1.2.,2013-06-17 00:28:00,
2013-06-16 17:33:00,71.6,59.6,29.91,SSE,165,5.0,8.0,66,0.00,,,0.00,385,HR-IXPWINDi_r2_v1.2.,2013-06-17 00:33:00,
2013-06-16 17:38:00,71.3,59.3,29.91,SSE,162,2.0,8.0,66,0.00,,,0.00,367,HR-IXPWINDi_r2_v1.2.,2013-06-17 00:38:00,
2013-06-16 17:43:00,70.8,59.2,29.92,SSE,167,2.0,8.0,67,0.00,,,0.00,353,HR-IXPWINDi_r2_v1.2.,2013-06-17 00:43:00,
2013-06-16 17:49:00,70.4,59.7,29.91,SSE,159,3.0,8.0,69,0.00,,,0.00,339,HR-IXPWINDi_r2_v1.2.,2013-06-17 00:49:00,
2013-06-16 17:54:00,70.5,59.8,29.91,SSW,199,4.0,8.0,69,0.00,,,0.00,320,HR-IXPWINDi_r2_v1.2.,2013-06-17 00:54:00,
2013-06-16 17:59:00,70.8,59.7,29.91,SSW,198,0.0,8.0,68,0.00,,,0.00,304,HR-IXPWINDi_r2_v1.2.,2013-06-17 00:59:00,
2013-06-16 18:04:00,70.2,59.1,29.91,WSW,257,2.0,8.0,68,0.00,,,0.00,288,HR-IXPWINDi_r2_v1.2.,2013-06-17 01:04:00,
2013-06-16 18:09:00,70.4,59.3,29.91,SSW,196,4.0,8.0,68,0.00,,,0.00,272,HR-IXPWINDi_r2_v1.2.,2013-06-17 01:09:00,
2013-06-16 18:15:00,70.3,59.2,29.91,SSW,196,4.0,8.0,68,0.00,,,0.00,258,HR-IXPWINDi_r2_v1.2.,2013-06-17 01:15:00,
2013-06-16 18:20:00,69.3,58.6,29.91,SSW,213,2.0,7.0,69,0.00,,,0.00,243,HR-IXPWINDi_r2_v1.2.,2013-06-17 01:20:00,
2013-06-16 18:25:00,69.4,58.7,29.92,SSW,194,1.0,7.0,69,0.00,,,0.00,220,HR-IXPWINDi_r2_v1.2.,2013-06-17 01:25:00,
2013-06-16 18:30:00,68.6,58.8,29.91,South,186,2.0,6.0,71,0.00,,,0.00,211,HR-IXPWINDi_r2_v1.2.,2013-06-17 01:30:00,
2013-06-16 18:36:00,68.1,58.7,29.92,West,259,2.0,6.0,72,0.00,,,0.00,134,HR-IXPWINDi_r2_v1.2.,2013-06-17 01:36:00,
2013-06-16 18:41:00,67.4,58.4,29.92,SSW,199,2.0,5.0,73,0.00,,,0.00,35,HR-IXPWINDi_r2_v1.2.,2013-06-17 01:41:00,
2013-06-16 18:46:00,66.4,58.2,29.92,SSW,207,2.0,6.0,75,0.00,,,0.00,30,HR-IXPWINDi_r2_v1.2.,2013-06-17 01:46:00,
2013-06-16 18:51:00,65.8,58.0,29.92,South,178,2.0,7.0,76,0.00,,,0.00,28,HR-IXPWINDi_r2_v1.2.,2013-06-17 01:51:00,
2013-06-16 18:56:00,65.5,58.0,29.92,SW,230,2.0,7.0,77,0.00,,,0.00,26,HR-IXPWINDi_r2_v1.2.,2013-06-17 01:56:00,
2013-06-16 19:01:00,65.2,57.7,29.92,South,184,5.0,6.0,77,0.00,,,0.00,26,HR-IXPWINDi_r2_v1.2.,2013-06-17 02:01:00,
2013-06-16 19:07:00,65.0,57.9,29.92,SSW,194,5.0,7.0,78,0.00,,,0.00,25,HR-IXPWINDi_r2_v1.2.,2013-06-17 02:07:00,
2013-06-16 19:12:00,64.8,57.7,29.92,South,189,2.0,7.0,78,0.00,,,0.00,23,HR-IXPWINDi_r2_v1.2.,2013-06-17 02:12:00,
2013-06-16 19:17:00,64.7,57.6,29.92,SSW,207,1.0,6.0,78,0.00,,,0.00,21,HR-IXPWINDi_r2_v1.2.,2013-06-17 02:17:00,
2013-06-16 19:23:00,64.6,57.9,29.92,South,177,1.0,4.0,79,0.00,,,0.00,19,HR-IXPWINDi_r2_v1.2.,2013-06-17 02:23:00,
2013-06-16 19:28:00,64.4,57.7,29.92,SW,219,1.0,5.0,79,0.00,,,0.00,18,HR-IXPWINDi_r2_v1.2.,2013-06-17 02:28:00,
2013-06-16 19:33:00,64.1,57.7,29.92,SW,216,1.0,5.0,80,0.00,,,0.00,18,HR-IXPWINDi_r2_v1.2.,2013-06-17 02:33:00,
2013-06-16 19:38:00,63.8,57.8,29.92,South,169,2.0,6.0,81,0.00,,,0.00,16,HR-IXPWINDi_r2_v1.2.,2013-06-17 02:38:00,
2013-06-16 19:43:00,63.6,57.6,29.92,SSE,153,0.0,6.0,81,0.00,,,0.00,14,HR-IXPWINDi_r2_v1.2.,2013-06-17 02:43:00,
2013-06-16 19:49:00,63.4,57.4,29.92,South,180,0.0,5.0,81,0.00,,,0.00,12,HR-IXPWINDi_r2_v1.2.,2013-06-17 02:49:00,
2013-06-16 19:54:00,63.3,57.6,29.92,SSE,161,1.0,3.0,82,0.00,,,0.00,9,HR-IXPWINDi_r2_v1.2.,2013-06-17 02:54:00,
2013-06-16 19:59:00,63.1,57.5,29.92,SSE,161,0.0,3.0,82,0.00,,,0.00,7,HR-IXPWINDi_r2_v1.2.,2013-06-17 02:59:00,
2013-06-16 20:04:00,62.9,57.3,29.92,SSE,161,0.0,2.0,82,0.00,,,0.00,5,HR-IXPWINDi_r2_v1.2.,2013-06-17 03:04:00,
2013-06-16 20:10:00,62.8,57.2,29.92,SSE,161,0.0,2.0,82,0.00,,,0.00,0,HR-IXPWINDi_r2_v1.2.,2013-06-17 03:10:00,
2013-06-16 20:15:00,62.6,57.0,29.92,SSE,161,0.0,1.0,82,0.00,,,0.00,0,HR-IXPWINDi_r2_v1.2.,2013-06-17 03:15:00,
2013-06-16 20:20:00,62.4,56.8,29.92,SSE,161,0.0,1.0,82,0.00,,,0.00,0,HR-IXPWINDi_r2_v1.2.,2013-06-17 03:20:00,
2013-06-16 20:25:00,62.0,56.7,29.92,SSE,161,0.0,0.0,83,0.00,,,0.00,0,HR-IXPWINDi_r2_v1.2.,2013-06-17 03:25:00,
2013-06-16 20:30:00,61.6,56.3,29.92,SSE,161,0.0,0.0,83,0.00,,,0.00,0,HR-IXPWINDi_r2_v1.2.,2013-06-17 03:30:00,
2013-06-16 20:35:00,61.0,56.1,29.92,SSE,161,0.0,0.0,84,0.00,,,0.00,0,HR-IXPWINDi_r2_v1.2.,2013-06-17 03:35:00,
2013-06-16 20:41:00,60.7,56.1,29.92,SSE,161,0.0,0.0,85,0.00,,,0.00,0,HR-IXPWINDi_r2_v1.2.,2013-06-17 03:41:00,
2013-06-16 20:46:00,60.3,55.7,29.92,SSE,161,0.0,0.0,85,0.00,,,0.00,0,HR-IXPWINDi_r2_v1.2.,2013-06-17 03:46:00,
2013-06-16 20:51:00,59.8,55.5,29.92,SSE,161,0.0,0.0,86,0.00,,,0.00,0,HR-IXPWINDi_r2_v1.2.,2013-06-17 03:51:00,
2013-06-16 20:56:00,59.6,55.7,29.92,SSE,161,0.0,0.0,87,0.00,,,0.00,0,HR-IXPWINDi_r2_v1.2.,2013-06-17 03:56:00,
2013-06-16 21:01:00,59.5,55.6,29.92,SSE,161,0.0,0.0,87,0.00,,,0.00,0,HR-IXPWINDi_r2_v1.2.,2013-06-17 04:01:00,
2013-06-16 21:06:00,59.1,55.2,29.92,SSE,161,0.0,0.0,87,0.00,,,0.00,0,HR-IXPWINDi_r2_v1.2.,2013-06-17 04:06:00,
2013-06-16 21:11:00,58.9,55.0,29.92,SSE,161,0.0,0.0,87,0.00,,,0.00,0,HR-IXPWINDi_r2_v1.2.,2013-06-17 04:11:00,
2013-06-16 21:17:00,58.7,55.1,29.92,SSE,161,0.0,0.0,88,0.00,,,0.00,0,HR-IXPWINDi_r2_v1.2.,2013-06-17 04:17:00,
2013-06-16 21:22:00,58.4,54.8,29.92,SSE,161,0.0,0.0,88,0.00,,,0.00,0,HR-IXPWINDi_r2_v1.2.,2013-06-17 04:22:00,
2013-06-16 21:27:00,58.2,54.6,29.92,SSE,161,0.0,0.0,88,0.00,,,0.00,0,HR-IXPWINDi_r2_v1.2.,2013-06-17 04:27:00,
2013-06-16 21:32:00,57.9,54.3,29.92,SSE,161,0.0,0.0,88,0.00,,,0.00,0,HR-IXPWINDi_r2_v1.2.,2013-06-17 04:32:00,
2013-06-16 21:37:00,57.6,54.0,29.92,SSE,161,0.0,0.0,88,0.00,,,0.00,0,HR-IXPWINDi_r2_v1.2.,2013-06-17 04:37:00,
2013-06-16 21:42:00,57.4,54.1,29.92,SSE,161,0.0,1.0,89,0.00,,,0.00,0,HR-IXPWINDi_r2_v1.2.,2013-06-17 04:42:00,
2013-06-16 21:48:00,57.2,53.9,29.92,SSE,161,0.0,1.0,89,0.00,,,0.00,0,HR-IXPWINDi_r2_v1.2.,2013-06-17 04:48:00,
2013-06-16 21:53:00,56.9,53.6,29.92,SSE,161,0.0,0.0,89,0.00,,,0.00,0,HR-IXPWINDi_r2_v1.2.,2013-06-17 04:53:00,
2013-06-16 21:58:00,56.9,53.9,29.92,SSE,165,0.0,1.0,90,0.00,,,0.00,0,HR-IXPWINDi_r2_v1.2.,2013-06-17 04:58:00,
2013-06-16 22:04:00,56.8,53.8,29.92,SSE,165,0.0,1.0,90,0.00,,,0.00,0,HR-IXPWINDi_r2_v1.2.,2013-06-17 05:04:00,
2013-06-16 22:09:00,56.7,53.4,29.92,SSE,165,0.0,1.0,89,0.00,,,0.00,0,HR-IXPWINDi_r2_v1.2.,2013-06-17 05:09:00,
2013-06-16 22:14:00,56.4,53.4,29.92,SSE,165,0.0,0.0,90,0.00,,,0.00,0,HR-IXPWINDi_r2_v1.2.,2013-06-17 05:14:00,
2013-06-16 22:19:00,56.3,53.3,29.92,SSE,165,0.0,1.0,90,0.00,,,0.00,0,HR-IXPWINDi_r2_v1.2.,2013-06-17 05:19:00,
2013-06-16 22:24:00,56.1,53.1,29.92,SSE,165,0.0,1.0,90,0.00,,,0.00,0,HR-IXPWINDi_r2_v1.2.,2013-06-17 05:24:00,
2013-06-16 22:30:00,55.9,53.2,29.92,SSE,165,0.0,0.0,91,0.00,,,0.00,0,HR-IXPWINDi_r2_v1.2.,2013-06-17 05:30:00,
2013-06-16 22:35:00,55.8,53.1,29.92,SSE,165,0.0,0.0,91,0.00,,,0.00,0,HR-IXPWINDi_r2_v1.2.,2013-06-17 05:35:00,
2013-06-16 22:40:00,55.5,52.8,29.92,SSE,165,0.0,0.0,91,0.00,,,0.00,0,HR-IXPWINDi_r2_v1.2.,2013-06-17 05:40:00,
2013-06-16 22:45:00,55.4,52.8,29.93,SSE,165,0.0,0.0,91,0.00,,,0.00,0,HR-IXPWINDi_r2_v1.2.,2013-06-17 05:45:00,
2013-06-16 22:50:00,55.4,52.8,29.92,SSE,165,0.0,0.0,91,0.00,,,0.00,0,HR-IXPWINDi_r2_v1.2.,2013-06-17 05:50:00,
2013-06-16 22:56:00,55.4,52.8,29.92,SSE,165,0.0,0.0,91,0.00,,,0.00,0,HR-IXPWINDi_r2_v1.2.,2013-06-17 05:56:00,
2013-06-16 23:01:00,55.1,52.5,29.92,SSE,165,0.0,0.0,91,0.00,,,0.00,0,HR-IXPWINDi_r2_v1.2.,2013-06-17 06:01:00,
2013-06-16 23:06:00,55.0,52.4,29.92,SSE,165,0.0,0.0,91,0.00,,,0.00,0,HR-IXPWINDi_r2_v1.2.,2013-06-17 06:06:00,
2013-06-16 23:11:00,54.8,52.5,29.92,SSE,165,0.0,0.0,92,0.00,,,0.00,0,HR-IXPWINDi_r2_v1.2.,2013-06-17 06:11:00,
2013-06-16 23:17:00,54.8,52.5,29.92,South,169,0.0,0.0,92,0.00,,,0.00,0,HR-IXPWINDi_r2_v1.2.,2013-06-17 06:17:00,
2013-06-16 23:22:00,54.7,52.4,29.92,South,169,0.0,0.0,92,0.00,,,0.00,0,HR-IXPWINDi_r2_v1.2.,2013-06-17 06:22:00,
2013-06-16 23:27:00,54.6,52.3,29.92,SSW,212,2.0,2.0,92,0.00,,,0.00,0,HR-IXPWINDi_r2_v1.2.,2013-06-17 06:27:00,
2013-06-16 23:33:00,54.6,52.3,29.92,SW,221,0.0,3.0,92,0.00,,,0.00,0,HR-IXPWINDi_r2_v1.2.,2013-06-17 06:33:00,
2013-06-16 23:38:00,54.5,52.2,29.92,SW,221,1.0,3.0,92,0.00,,,0.00,0,HR-IXPWINDi_r2_v1.2.,2013-06-17 06:38:00,
2013-06-16 23:43:00,54.4,52.1,29.92,SW,221,0.0,2.0,92,0.00,,,0.00,0,HR-IXPWINDi_r2_v1.2.,2013-06-17 06:43:00,
2013-06-16 23:48:00,54.4,52.1,29.92,SW,221,1.0,2.0,92,0.00,,,0.00,0,HR-IXPWINDi_r2_v1.2.,2013-06-17 06:48:00,
2013-06-16 23:53:00,54.4,52.1,29.92,SW,221,1.0,2.0,92,0.00,,,0.00,0,HR-IXPWINDi_r2_v1.2.,2013-06-17 06:53:00,
2013-06-16 23:59:00,54.3,52.0,29.92,SW,221,2.0,2.0,92,0.00,,,0.00,0,HR-IXPWINDi_r2_v1.2.,2013-06-17 06:59:00,